Airfield :
LOGIN :

Register | Disclaimer

   EN    FR    IT 

 










Legend :    VFR   Marginal VFR   IFR   Intensive IFR   Very Intensive IFR
Visi :
Ceiling :
>= 8 km
>= 3000ft
5 to 8 km
1000 to 3000 ft
1500m to 5 km
500 to 1000 ft
800 to 1500m
200 to 500 ft
< 800m
< 200 ft
Symbols :   Thunderstorms  Fog  Heavy snow  Heavy precipitations  Wind > 20 kt
SIGMETs :     Misc.  Thunderstorms  Icing  Turbulence  Mountain Waves  Volcanic Ashes






- Airport Elevation : 87 ft
- IATA code : FSC


LFKF - Figari

CURRENT METAR :
  • 100530Z AUTO VRB02KT CAVOK 03/03 Q1010 NOSIG

EXPIRED METARs :
  • 100500Z AUTO 03003KT 350V060 CAVOK 03/02 Q1010 NOSIG
  • 100430Z AUTO VRB03KT CAVOK 04/03 Q1009 NOSIG
  • 100400Z AUTO VRB03KT CAVOK 05/03 Q1009 NOSIG
  • 100330Z AUTO 06004KT CAVOK 06/04 Q1009 NOSIG
  • 100300Z AUTO 07004KT 030V100 CAVOK 07/04 Q1009

TAF TAF LFKF
Valid from the 10 at 03:00 until the 11 at 03:00 UTC


100200Z 1003/1103 VRB02KT CAVOK
BECMG 1010/1012 05015G27KT
BECMG 1017/1019 05003KT



MET'MAP, your aeronautical weather chart ! - Copyright ORBIFLY December 2007 - Disclaimer

ORBIFLY MET'MAP TEAM :

Programming & Development : Alexandra Zaïnal
Concept & original design : Baudouin d'Aumeries
Assistance for programming : Marc-Olivier Méhu
Technical & hardware support : Manuel Goepfert

Contact : metmap@orbifly.com




SOURCES & CREDITS :

   NOAA